Skip Navigation Links Skip Navigation Links

Current Weather

Boryspil, Kiev, Ukraine

For information only: do not use for flight planning or navigation.
Latest weather
Observation time Tuesday, December 1, 2020 4:47 PM EET
Local time Tuesday, December 1, 2020 5:13 PM EET
Flight conditions Low Instrument Meteorological Conditions
Winds
Wind direction North-Northeast (30°)
Wind speed 9 mph
Visibility 6.2 mi.
Present weather light snow
Sky condition
Ceiling 400 ft. overcast
Cloud layer overcast 400 ft.
Temperature 30°F
Dewpoint 30°F
Altimeter 30.30 in.Hg
Derived measurements
Relative humidity 100%
Wind chill 22°F
Density altitude -1760 ft.
Remarks
Special weather observation.
No significant changes expected in the next two hours.
METAR SPUR31 KWBC 011450 SPECI UKKK 011447Z 03004MPS 9999 -SN OVC004 M01/M01 Q1026 R08/590145 NOSIG

Settings

Location code

InnerDrive.Weather 4.0.6770.0 Release CLR 4.0.30319.42000
Copyright ©2018 Inner Drive Technology. All rights reserved. Portions Copyright ©1986-2018 David Braverman.

Find weather

Site navigation


Skip Navigation Links

Place info

Page info

PayPal - The safer, easier way to pay online!

Return home.

Copyright ©2020 Inner Drive Technology. Purveyors of fine, hand-crafted computer software. Page printed 2020-12-01T15:13:38 UTC.